Time;durP1;ratioP1;P1;durP2;ratioP2;P2;SDS_P1;SDS_P2;PMS_P1;PMS_P2;Temp;Humidity;BMP_temperature;BMP_pressure;BME280_temperature;BME280_humidity;BME280_pressure;Samples;Min_cycle;Max_cycle;Signal;HPM_P1;HPM_P2
2022/03/02 00:01:19;;;;;;;20.02;12.05;;;;;;;;;;4974084;28;20042;-68
2022/03/02 00:04:24;;;;;;;24.08;11.45;;;;;;;;;;4974779;28;20054;-69
2022/03/02 00:07:28;;;;;;;28.02;14.18;;;;;;;;;;4975006;28;20050;-69
2022/03/02 00:10:33;;;;;;;24.50;12.60;;;;;;;;;;4972297;28;20062;-69
2022/03/02 00:13:37;;;;;;;23.48;13.20;;;;;;;;;;4974754;28;20517;-69
2022/03/02 00:16:41;;;;;;;23.10;11.40;;;;;;;;;;4974625;28;20034;-68
2022/03/02 00:19:46;;;;;;;23.90;12.45;;;;;;;;;;4974738;28;20042;-69
2022/03/02 00:22:52;;;;;;;20.63;10.77;;;;;;;;;;4974591;28;20065;-69
2022/03/02 00:25:57;;;;;;;19.70;11.00;;;;;;;;;;4962830;28;20041;-68
2022/03/02 00:29:01;;;;;;;21.45;11.85;;;;;;;;;;4974577;28;20054;-68
2022/03/02 00:32:06;;;;;;;21.30;11.05;;;;;;;;;;4962283;28;20054;-69
2022/03/02 00:35:10;;;;;;;16.42;10.38;;;;;;;;;;4974338;28;20660;-69
2022/03/02 00:38:14;;;;;;;23.90;11.77;;;;;;;;;;4974200;28;20110;-69
2022/03/02 00:41:19;;;;;;;18.77;10.70;;;;;;;;;;4962411;28;20066;-69
2022/03/02 00:44:23;;;;;;;29.58;10.38;;;;;;;;;;4962318;28;20478;-68
2022/03/02 00:47:28;;;;;;;18.27;10.60;;;;;;;;;;4973923;28;20050;-70
2022/03/02 00:50:32;;;;;;;17.55;9.68;;;;;;;;;;4974204;28;20042;-70
2022/03/02 00:53:36;;;;;;;16.10;9.02;;;;;;;;;;4973983;28;20043;-68
2022/03/02 00:56:42;;;;;;;19.58;8.85;;;;;;;;;;4973929;28;20046;-69
2022/03/02 00:59:46;;;;;;;18.48;9.32;;;;;;;;;;4973703;28;20371;-69
2022/03/02 01:02:51;;;;;;;16.15;9.25;;;;;;;;;;4973849;28;20058;-69
2022/03/02 01:05:55;;;;;;;17.83;9.10;;;;;;;;;;4972509;28;20035;-69
2022/03/02 01:08:59;;;;;;;17.88;9.25;;;;;;;;;;4973770;28;20118;-70
2022/03/02 01:12:04;;;;;;;15.90;9.30;;;;;;;;;;4961663;28;20055;-70
2022/03/02 01:15:09;;;;;;;18.48;9.40;;;;;;;;;;4973616;28;20035;-69
2022/03/02 01:18:13;;;;;;;16.75;9.35;;;;;;;;;;4973487;28;20050;-69
2022/03/02 01:21:19;;;;;;;18.60;10.90;;;;;;;;;;4973453;28;20068;-70
2022/03/02 01:24:23;;;;;;;19.10;10.15;;;;;;;;;;4973450;28;20522;-69
2022/03/02 01:27:27;;;;;;;18.30;10.88;;;;;;;;;;4961657;28;20045;-68
2022/03/02 01:30:32;;;;;;;17.27;11.02;;;;;;;;;;4973457;28;20038;-68
2022/03/02 01:33:36;;;;;;;20.10;11.35;;;;;;;;;;4973308;28;20057;-69
2022/03/02 01:36:40;;;;;;;20.10;10.85;;;;;;;;;;4973248;28;20603;-69
2022/03/02 01:39:45;;;;;;;22.80;10.10;;;;;;;;;;4973238;28;20058;-69
2022/03/02 01:42:49;;;;;;;21.10;10.25;;;;;;;;;;4973274;28;20502;-69
2022/03/02 01:45:54;;;;;;;17.30;10.30;;;;;;;;;;4973001;28;20399;-69
2022/03/02 01:48:58;;;;;;;18.75;10.30;;;;;;;;;;4972845;28;20046;-69
2022/03/02 01:52:03;;;;;;;16.65;10.85;;;;;;;;;;4972881;28;20053;-69
2022/03/02 01:55:08;;;;;;;19.20;10.63;;;;;;;;;;4972749;28;20061;-69
2022/03/02 01:58:12;;;;;;;17.20;10.75;;;;;;;;;;4972730;28;20049;-69
2022/03/02 02:01:16;;;;;;;20.80;10.10;;;;;;;;;;4972976;28;20119;-69
2022/03/02 02:04:21;;;;;;;20.38;9.68;;;;;;;;;;4972974;28;20038;-69
2022/03/02 02:07:26;;;;;;;18.42;9.13;;;;;;;;;;4972837;28;20050;-69
2022/03/02 02:10:31;;;;;;;18.10;8.35;;;;;;;;;;4972968;28;20051;-69
2022/03/02 02:13:35;;;;;;;15.70;7.75;;;;;;;;;;4972534;28;20054;-69
2022/03/02 02:16:39;;;;;;;11.25;6.97;;;;;;;;;;4960635;28;20403;-69
2022/03/02 02:19:43;;;;;;;11.75;6.28;;;;;;;;;;4972555;28;20039;-69
2022/03/02 02:22:48;;;;;;;15.93;6.30;;;;;;;;;;4972512;28;20038;-69
2022/03/02 02:25:52;;;;;;;12.70;5.80;;;;;;;;;;4972675;28;20046;-68
2022/03/02 02:28:56;;;;;;;10.18;5.95;;;;;;;;;;4972586;28;20043;-68
2022/03/02 02:32:01;;;;;;;10.65;4.80;;;;;;;;;;4972410;28;20055;-68
2022/03/02 02:35:06;;;;;;;12.85;5.50;;;;;;;;;;4972585;28;20035;-68
2022/03/02 02:38:10;;;;;;;11.10;5.15;;;;;;;;;;4972492;28;20047;-69
2022/03/02 02:41:18;;;;;;;13.13;4.90;;;;;;;;;;4972212;28;20047;-68
2022/03/02 02:44:23;;;;;;;11.68;4.65;;;;;;;;;;4972367;28;20042;-69
2022/03/02 02:47:27;;;;;;;9.00;5.30;;;;;;;;;;4972117;28;20047;-68
2022/03/02 02:50:33;;;;;;;7.10;4.47;;;;;;;;;;4972049;28;20035;-69
2022/03/02 02:53:38;;;;;;;9.50;4.63;;;;;;;;;;4972037;28;20510;-68
2022/03/02 02:56:42;;;;;;;6.65;3.92;;;;;;;;;;4972142;28;20043;-68
2022/03/02 02:59:46;;;;;;;6.15;3.63;;;;;;;;;;4972151;28;20047;-68
2022/03/02 03:02:51;;;;;;;5.07;3.28;;;;;;;;;;4972167;28;20039;-68
2022/03/02 03:05:58;;;;;;;5.63;3.58;;;;;;;;;;4972245;28;20043;-70
2022/03/02 03:09:03;;;;;;;9.27;4.50;;;;;;;;;;4971988;28;20031;-69
2022/03/02 03:12:09;;;;;;;5.22;3.45;;;;;;;;;;4971968;28;20043;-69
2022/03/02 03:15:14;;;;;;;6.38;3.17;;;;;;;;;;4971945;28;20050;-69
2022/03/02 03:18:18;;;;;;;9.63;4.07;;;;;;;;;;4971634;28;20034;-69
2022/03/02 03:21:22;;;;;;;5.95;3.65;;;;;;;;;;4971986;28;20482;-68
2022/03/02 03:24:29;;;;;;;9.35;3.25;;;;;;;;;;4971989;28;20380;-69
2022/03/02 03:27:34;;;;;;;8.55;4.05;;;;;;;;;;4971847;28;20038;-69
2022/03/02 03:30:38;;;;;;;5.75;3.83;;;;;;;;;;4974487;28;20038;-68
2022/03/02 03:33:42;;;;;;;6.90;3.53;;;;;;;;;;4975254;28;20047;-68
2022/03/02 03:36:47;;;;;;;7.28;4.05;;;;;;;;;;4975494;28;20372;-69
2022/03/02 03:39:51;;;;;;;8.57;4.40;;;;;;;;;;4975491;28;20047;-69
2022/03/02 03:42:55;;;;;;;9.77;3.80;;;;;;;;;;4975401;28;20043;-69
2022/03/02 03:45:59;;;;;;;9.40;5.18;;;;;;;;;;4975442;28;20479;-70
2022/03/02 03:49:04;;;;;;;9.25;5.25;;;;;;;;;;4975052;28;20368;-69
2022/03/02 03:52:09;;;;;;;7.57;4.57;;;;;;;;;;4975148;28;20038;-69
2022/03/02 03:55:14;;;;;;;7.82;4.25;;;;;;;;;;4975290;28;20051;-69
2022/03/02 03:58:18;;;;;;;8.82;4.32;;;;;;;;;;4975216;28;20035;-69
2022/03/02 04:01:22;;;;;;;6.55;3.90;;;;;;;;;;4975216;28;20035;-69
2022/03/02 04:04:27;;;;;;;8.98;4.30;;;;;;;;;;4963177;28;20043;-69
2022/03/02 04:07:32;;;;;;;10.00;3.85;;;;;;;;;;4974704;28;20027;-69
2022/03/02 04:10:36;;;;;;;5.60;3.75;;;;;;;;;;4974623;28;20133;-69
2022/03/02 04:13:41;;;;;;;6.50;3.97;;;;;;;;;;4974952;28;20050;-69
2022/03/02 04:16:45;;;;;;;8.13;4.35;;;;;;;;;;4962902;28;20039;-69
2022/03/02 04:19:49;;;;;;;5.35;4.10;;;;;;;;;;4974824;28;20042;-69
2022/03/02 04:22:54;;;;;;;7.65;4.55;;;;;;;;;;4974915;28;20043;-69
2022/03/02 04:25:58;;;;;;;9.55;4.10;;;;;;;;;;4974675;28;20043;-69
2022/03/02 04:29:02;;;;;;;7.20;4.30;;;;;;;;;;4974347;28;20034;-69
2022/03/02 04:32:07;;;;;;;9.43;4.65;;;;;;;;;;4974273;28;20043;-69
2022/03/02 04:35:12;;;;;;;11.75;4.65;;;;;;;;;;4962366;28;20038;-69
2022/03/02 04:38:17;;;;;;;9.80;4.78;;;;;;;;;;4974305;28;20035;-69
2022/03/02 04:41:21;;;;;;;12.55;6.75;;;;;;;;;;4974277;28;20043;-69
2022/03/02 04:44:25;;;;;;;9.90;4.55;;;;;;;;;;4974126;28;20035;-69
2022/03/02 04:47:30;;;;;;;6.03;4.35;;;;;;;;;;4974381;28;20043;-69
2022/03/02 04:50:34;;;;;;;8.23;4.28;;;;;;;;;;4974207;28;20031;-69
2022/03/02 04:53:38;;;;;;;6.38;3.60;;;;;;;;;;4973717;28;20051;-69
2022/03/02 04:56:43;;;;;;;12.60;4.30;;;;;;;;;;4974048;28;20376;-69
2022/03/02 04:59:47;;;;;;;9.05;4.20;;;;;;;;;;4973595;28;20041;-69
2022/03/02 05:02:51;;;;;;;7.40;4.68;;;;;;;;;;4973807;28;20035;-69
2022/03/02 05:05:56;;;;;;;6.47;4.63;;;;;;;;;;4973854;28;20043;-69
2022/03/02 05:09:00;;;;;;;10.02;5.18;;;;;;;;;;4961874;28;20038;-69
2022/03/02 05:12:04;;;;;;;7.95;4.18;;;;;;;;;;4973686;28;20059;-69
2022/03/02 05:15:09;;;;;;;7.00;4.05;;;;;;;;;;4973860;28;20035;-69
2022/03/02 05:18:13;;;;;;;11.75;4.57;;;;;;;;;;4973556;28;20491;-69
2022/03/02 05:21:18;;;;;;;12.02;5.30;;;;;;;;;;4973718;28;20039;-69
2022/03/02 05:24:22;;;;;;;16.67;5.32;;;;;;;;;;4973713;28;20066;-69
2022/03/02 05:27:27;;;;;;;11.13;5.03;;;;;;;;;;4973614;28;20506;-69
2022/03/02 05:30:31;;;;;;;8.43;4.18;;;;;;;;;;4973582;28;20399;-69
2022/03/02 05:33:35;;;;;;;6.93;4.78;;;;;;;;;;4973166;28;20046;-69
2022/03/02 05:36:39;;;;;;;9.65;4.60;;;;;;;;;;4973444;28;20043;-69
2022/03/02 05:39:44;;;;;;;8.68;4.78;;;;;;;;;;4973265;28;20051;-69
2022/03/02 05:42:48;;;;;;;14.48;5.25;;;;;;;;;;4973259;28;20043;-69
2022/03/02 05:45:52;;;;;;;11.50;5.20;;;;;;;;;;4973138;28;20399;-69
2022/03/02 05:48:56;;;;;;;8.77;5.32;;;;;;;;;;4949909;28;20509;-69
2022/03/02 05:52:01;;;;;;;9.77;4.78;;;;;;;;;;4972282;28;20038;-69
2022/03/02 05:55:05;;;;;;;9.35;5.35;;;;;;;;;;4972876;28;20050;-69
2022/03/02 05:58:10;;;;;;;12.38;5.55;;;;;;;;;;4972765;28;20486;-69
2022/03/02 06:01:14;;;;;;;14.38;5.43;;;;;;;;;;4972907;28;20053;-69
2022/03/02 06:04:19;;;;;;;15.82;6.55;;;;;;;;;;4972875;28;20044;-69
2022/03/02 06:07:23;;;;;;;13.13;4.80;;;;;;;;;;4972778;28;20046;-69
2022/03/02 06:10:28;;;;;;;7.40;5.20;;;;;;;;;;4972487;28;20051;-69
2022/03/02 06:13:32;;;;;;;14.10;5.45;;;;;;;;;;4960539;28;20051;-76
2022/03/02 06:16:36;;;;;;;18.80;5.82;;;;;;;;;;4972609;28;20046;-76
2022/03/02 06:19:41;;;;;;;21.38;7.20;;;;;;;;;;4972623;28;20039;-76
2022/03/02 06:22:45;;;;;;;17.45;8.98;;;;;;;;;;4972571;28;20039;-77
2022/03/02 06:25:49;;;;;;;13.13;5.90;;;;;;;;;;4972644;28;20038;-69
2022/03/02 06:28:54;;;;;;;20.95;8.23;;;;;;;;;;4972307;28;20038;-70
2022/03/02 06:31:58;;;;;;;21.75;10.32;;;;;;;;;;4960422;28;20062;-73
2022/03/02 06:35:02;;;;;;;31.27;14.32;;;;;;;;;;4959987;28;20050;-71
2022/03/02 06:38:07;;;;;;;24.02;8.60;;;;;;;;;;4972086;28;20107;-73
2022/03/02 06:41:15;;;;;;;20.92;7.78;;;;;;;;;;4972118;28;20146;-73
2022/03/02 06:44:25;;;;;;;25.90;10.32;;;;;;;;;;4972393;28;20042;-73
2022/03/02 06:47:32;;;;;;;23.27;10.38;;;;;;;;;;4972070;28;20114;-74
2022/03/02 06:50:38;;;;;;;22.65;8.43;;;;;;;;;;4971836;28;20050;-74
2022/03/02 06:53:44;;;;;;;14.60;7.93;;;;;;;;;;4972051;28;20043;-74
2022/03/02 06:56:50;;;;;;;21.92;7.97;;;;;;;;;;4972334;28;20035;-72
2022/03/02 06:59:58;;;;;;;28.02;7.95;;;;;;;;;;4971931;28;20101;-73
2022/03/02 07:03:07;;;;;;;25.58;8.38;;;;;;;;;;4972320;28;20506;-73
2022/03/02 07:06:11;;;;;;;22.95;7.68;;;;;;;;;;4975954;28;20055;-74
2022/03/02 07:09:16;;;;;;;29.70;8.30;;;;;;;;;;4976036;28;20070;-72
2022/03/02 07:12:21;;;;;;;22.80;11.02;;;;;;;;;;4975956;28;20062;-73
2022/03/02 07:15:25;;;;;;;13.05;7.07;;;;;;;;;;4975985;28;20073;-71
2022/03/02 07:18:30;;;;;;;25.58;8.55;;;;;;;;;;4975428;28;20031;-71
2022/03/02 07:21:36;;;;;;;17.35;8.70;;;;;;;;;;4963878;28;20387;-71
2022/03/02 07:24:51;;;;;;;17.13;7.32;;;;;;;;;;4975861;28;20357;-72
2022/03/02 07:27:56;;;;;;;33.20;9.23;;;;;;;;;;4963532;28;20058;-74
2022/03/02 07:31:00;;;;;;;24.02;7.78;;;;;;;;;;4963310;28;20039;-69
2022/03/02 07:34:09;;;;;;;17.90;8.48;;;;;;;;;;4963477;28;20042;-73
2022/03/02 07:37:14;;;;;;;18.67;8.68;;;;;;;;;;4975318;28;20034;-70
2022/03/02 07:40:21;;;;;;;24.10;7.50;;;;;;;;;;4975127;28;20045;-69
2022/03/02 07:43:25;;;;;;;18.13;7.63;;;;;;;;;;4975272;28;20047;-69
2022/03/02 07:46:30;;;;;;;32.38;9.45;;;;;;;;;;4975114;28;20047;-68
2022/03/02 07:49:35;;;;;;;26.65;10.25;;;;;;;;;;4975107;28;20129;-74
2022/03/02 07:52:45;;;;;;;29.55;10.55;;;;;;;;;;4975082;28;20058;-73
2022/03/02 07:55:51;;;;;;;27.67;9.68;;;;;;;;;;4975220;28;20399;-71
2022/03/02 07:59:06;;;;;;;22.73;10.05;;;;;;;;;;4974920;28;20056;-70
2022/03/02 08:02:12;;;;;;;24.83;9.80;;;;;;;;;;4974807;28;20505;-69
2022/03/02 08:05:16;;;;;;;31.20;11.02;;;;;;;;;;4974751;28;20038;-69
2022/03/02 08:08:21;;;;;;;25.08;10.40;;;;;;;;;;4974639;28;20045;-69
2022/03/02 08:11:25;;;;;;;19.40;9.48;;;;;;;;;;4974424;28;20054;-72
2022/03/02 08:14:29;;;;;;;25.88;9.98;;;;;;;;;;4974713;28;20050;-74
2022/03/02 08:17:34;;;;;;;31.35;11.07;;;;;;;;;;4974749;28;20043;-72
2022/03/02 08:20:44;;;;;;;20.92;10.25;;;;;;;;;;4974733;28;20042;-71
2022/03/02 08:23:49;;;;;;;26.00;12.10;;;;;;;;;;4962613;28;20054;-72
2022/03/02 08:26:59;;;;;;;32.22;10.75;;;;;;;;;;4974287;28;20065;-75
2022/03/02 08:30:06;;;;;;;15.55;8.68;;;;;;;;;;4962415;28;20042;-72
2022/03/02 08:33:12;;;;;;;16.38;9.13;;;;;;;;;;4962330;28;20051;-75
2022/03/02 08:36:21;;;;;;;15.25;7.10;;;;;;;;;;4974409;28;20035;-73
2022/03/02 08:39:26;;;;;;;8.82;5.68;;;;;;;;;;4974346;28;20043;-73
2022/03/02 08:42:31;;;;;;;13.18;5.03;;;;;;;;;;4974303;28;20042;-70
2022/03/02 08:45:35;;;;;;;12.65;6.55;;;;;;;;;;4974379;28;20483;-75
2022/03/02 08:48:40;;;;;;;8.77;5.57;;;;;;;;;;4973911;28;20505;-72
2022/03/02 08:51:45;;;;;;;10.07;5.07;;;;;;;;;;4974180;28;20047;-72
2022/03/02 08:54:49;;;;;;;11.43;4.55;;;;;;;;;;4973923;28;20070;-74
2022/03/02 08:57:54;;;;;;;11.20;5.90;;;;;;;;;;4973756;28;20185;-70
2022/03/02 09:00:59;;;;;;;13.13;5.45;;;;;;;;;;4974009;28;20407;-72
2022/03/02 09:04:04;;;;;;;13.48;5.32;;;;;;;;;;4973662;28;20066;-73
2022/03/02 09:07:09;;;;;;;11.85;4.43;;;;;;;;;;4973796;28;20049;-72
2022/03/02 09:10:13;;;;;;;8.63;4.03;;;;;;;;;;4973494;28;20055;-74
2022/03/02 09:13:18;;;;;;;7.35;4.40;;;;;;;;;;4973587;28;20050;-73
2022/03/02 09:16:22;;;;;;;8.52;4.53;;;;;;;;;;4973685;28;20038;-69
2022/03/02 09:19:27;;;;;;;10.32;5.50;;;;;;;;;;4973638;28;20047;-69
2022/03/02 09:22:32;;;;;;;12.88;4.72;;;;;;;;;;4973569;28;20046;-73
2022/03/02 09:25:40;;;;;;;7.82;3.88;;;;;;;;;;4973296;28;20043;-72
2022/03/02 09:28:45;;;;;;;6.88;4.10;;;;;;;;;;4972687;28;20043;-71
2022/03/02 09:31:50;;;;;;;6.55;3.63;;;;;;;;;;4973404;28;20035;-71
2022/03/02 09:34:57;;;;;;;21.98;6.32;;;;;;;;;;4961313;28;20054;-72
2022/03/02 09:38:01;;;;;;;5.03;2.95;;;;;;;;;;4973245;28;20031;-69
2022/03/02 09:41:06;;;;;;;8.13;3.58;;;;;;;;;;4973325;28;20043;-71
2022/03/02 09:44:13;;;;;;;5.85;3.30;;;;;;;;;;4973075;28;20030;-71
2022/03/02 09:47:18;;;;;;;6.95;3.95;;;;;;;;;;4972934;28;20050;-71
2022/03/02 09:50:24;;;;;;;5.63;4.28;;;;;;;;;;4961074;28;20372;-71
2022/03/02 09:53:29;;;;;;;9.98;3.90;;;;;;;;;;4972678;28;20042;-71
2022/03/02 09:56:35;;;;;;;5.70;3.67;;;;;;;;;;4972876;28;20479;-71
2022/03/02 09:59:40;;;;;;;5.85;4.00;;;;;;;;;;4972825;28;20035;-72
2022/03/02 10:02:46;;;;;;;6.78;3.92;;;;;;;;;;4960923;28;20054;-68
2022/03/02 10:05:51;;;;;;;10.68;3.83;;;;;;;;;;4971907;28;20043;-67
2022/03/02 10:08:55;;;;;;;5.47;3.40;;;;;;;;;;4972544;28;20050;-70
2022/03/02 10:12:01;;;;;;;6.20;4.18;;;;;;;;;;4960742;28;20035;-70
2022/03/02 10:15:10;;;;;;;8.93;4.75;;;;;;;;;;4972608;28;20050;-69
2022/03/02 10:18:16;;;;;;;5.93;3.78;;;;;;;;;;4972549;28;20115;-76
2022/03/02 10:21:23;;;;;;;9.55;4.38;;;;;;;;;;4972813;28;20047;-74
2022/03/02 10:24:29;;;;;;;5.32;3.88;;;;;;;;;;4972581;28;20038;-83
2022/03/02 10:27:52;;;;;;;5.22;3.60;;;;;;;;;;4972384;28;20039;-76
2022/03/02 10:31:03;;;;;;;4.88;3.70;;;;;;;;;;4972067;28;20046;-73
2022/03/02 10:34:22;;;;;;;11.98;4.90;;;;;;;;;;4960008;28;20051;-68
2022/03/02 10:37:30;;;;;;;5.70;3.75;;;;;;;;;;4972383;28;20038;-75
2022/03/02 10:40:37;;;;;;;8.60;4.50;;;;;;;;;;4972418;28;20047;-75
2022/03/02 10:43:59;;;;;;;9.60;4.55;;;;;;;;;;4960205;28;20043;-76
2022/03/02 10:47:04;;;;;;;7.60;3.53;;;;;;;;;;4971618;28;20035;-72
2022/03/02 10:50:09;;;;;;;7.35;3.88;;;;;;;;;;4969971;28;20506;-73
2022/03/02 10:53:17;;;;;;;8.25;4.32;;;;;;;;;;4971124;28;20050;-73
2022/03/02 10:56:22;;;;;;;7.57;3.83;;;;;;;;;;4971678;28;20043;-71
2022/03/02 10:59:28;;;;;;;4.82;3.45;;;;;;;;;;4971931;28;20038;-72
2022/03/02 11:02:33;;;;;;;10.52;4.47;;;;;;;;;;4972119;28;20392;-72
2022/03/02 11:05:38;;;;;;;4.60;3.17;;;;;;;;;;4960082;28;20046;-72
2022/03/02 11:08:44;;;;;;;21.67;5.55;;;;;;;;;;4971801;28;20047;-73
2022/03/02 11:11:48;;;;;;;6.80;3.83;;;;;;;;;;4971687;28;20503;-75
2022/03/02 11:15:03;;;;;;;10.05;4.10;;;;;;;;;;4972084;28;20047;-78
2022/03/02 11:18:08;;;;;;;6.78;4.57;;;;;;;;;;4971443;28;20049;-74
2022/03/02 11:21:20;;;;;;;10.30;4.40;;;;;;;;;;4971876;28;20035;-81
2022/03/02 11:24:26;;;;;;;9.68;4.00;;;;;;;;;;4971939;28;20419;-70
2022/03/02 11:27:41;;;;;;;7.60;4.32;;;;;;;;;;4971965;28;20035;-70
2022/03/02 11:30:52;;;;;;;7.20;3.70;;;;;;;;;;4971688;28;20050;-69
2022/03/02 11:34:10;;;;;;;5.65;4.10;;;;;;;;;;4971249;28;20050;-71
2022/03/02 11:37:15;;;;;;;10.05;4.43;;;;;;;;;;4971692;28;20050;-70
2022/03/02 11:40:38;;;;;;;9.07;4.38;;;;;;;;;;4971807;28;20053;-68
2022/03/02 11:43:42;;;;;;;8.77;4.60;;;;;;;;;;4971296;28;20042;-71
2022/03/02 11:46:47;;;;;;;8.20;4.53;;;;;;;;;;4959486;28;20043;-73
2022/03/02 11:49:55;;;;;;;8.35;4.40;;;;;;;;;;4971466;28;20035;-73
2022/03/02 11:53:07;;;;;;;9.32;4.88;;;;;;;;;;4974297;28;20047;-73
2022/03/02 11:56:13;;;;;;;7.45;4.53;;;;;;;;;;4973969;28;20043;-74
2022/03/02 11:59:17;;;;;;;5.35;3.88;;;;;;;;;;4975245;28;20479;-72
2022/03/02 12:02:22;;;;;;;6.13;3.97;;;;;;;;;;4974670;28;20047;-72
2022/03/02 12:05:36;;;;;;;12.93;4.32;;;;;;;;;;4974240;28;20034;-75
2022/03/02 12:08:40;;;;;;;10.60;4.38;;;;;;;;;;4974626;28;20042;-71
2022/03/02 12:11:44;;;;;;;6.78;4.30;;;;;;;;;;4974759;28;20708;-71
2022/03/02 12:14:49;;;;;;;10.00;4.55;;;;;;;;;;4974762;28;20054;-73
2022/03/02 12:18:06;;;;;;;12.75;5.30;;;;;;;;;;4974731;28;20038;-69
2022/03/02 12:21:17;;;;;;;9.15;4.60;;;;;;;;;;4974743;28;20054;-68
2022/03/02 12:24:29;;;;;;;6.95;4.80;;;;;;;;;;4974858;28;20043;-68
2022/03/02 12:27:33;;;;;;;6.57;4.82;;;;;;;;;;4974314;28;20030;-70
2022/03/02 12:30:37;;;;;;;9.20;4.90;;;;;;;;;;4973774;28;20038;-70
2022/03/02 12:33:42;;;;;;;13.30;9.13;;;;;;;;;;4973411;28;20047;-70
2022/03/02 12:36:46;;;;;;;9.80;6.78;;;;;;;;;;4974392;28;20044;-70
2022/03/02 12:39:52;;;;;;;18.50;12.10;;;;;;;;;;4974229;28;20035;-73
2022/03/02 12:42:56;;;;;;;8.25;5.95;;;;;;;;;;4973461;28;20049;-72
2022/03/02 12:46:02;;;;;;;13.10;5.80;;;;;;;;;;4962462;28;20043;-73
2022/03/02 12:49:08;;;;;;;11.75;7.30;;;;;;;;;;4974339;28;20503;-72
2022/03/02 12:52:13;;;;;;;9.10;5.22;;;;;;;;;;4973917;28;20522;-72
2022/03/02 12:55:18;;;;;;;9.35;5.63;;;;;;;;;;4974029;28;20042;-71
2022/03/02 12:58:23;;;;;;;10.15;5.72;;;;;;;;;;4973852;28;20376;-73
2022/03/02 13:01:28;;;;;;;32.25;7.55;;;;;;;;;;4973338;28;20052;-70
2022/03/02 13:04:59;;;;;;;11.35;4.85;;;;;;;;;;4973944;28;20495;-70
2022/03/02 13:08:34;;;;;;;15.20;5.90;;;;;;;;;;4969082;28;20483;-70
2022/03/02 13:11:39;;;;;;;14.23;6.07;;;;;;;;;;4973108;28;20063;-69
2022/03/02 13:14:43;;;;;;;12.65;6.55;;;;;;;;;;4973470;28;20051;-70
2022/03/02 13:18:08;;;;;;;11.00;6.72;;;;;;;;;;4973522;28;20038;-70
2022/03/02 13:21:17;;;;;;;11.48;6.38;;;;;;;;;;4973733;28;20046;-72
2022/03/02 13:24:21;;;;;;;14.02;5.97;;;;;;;;;;4972780;28;20034;-73
2022/03/02 13:27:26;;;;;;;8.07;5.50;;;;;;;;;;4973515;28;20510;-71
2022/03/02 13:30:30;;;;;;;9.02;5.97;;;;;;;;;;4973578;28;20038;-74
2022/03/02 13:34:02;;;;;;;10.10;6.63;;;;;;;;;;4972483;28;20046;-71
2022/03/02 13:37:06;;;;;;;27.20;6.88;;;;;;;;;;4973246;28;20038;-71
2022/03/02 13:43:24;;;;;;;9.73;6.50;;;;;;;;;;5340458;23;20494;-72
2022/03/02 13:46:29;;;;;;;10.25;6.10;;;;;;;;;;4973413;28;20054;-71
2022/03/02 13:52:59;;;;;;;8.52;5.82;;;;;;;;;;4973599;28;20039;-75
2022/03/02 13:56:05;;;;;;;15.02;5.82;;;;;;;;;;4973556;28;20047;-72
2022/03/02 13:59:15;;;;;;;9.90;4.80;;;;;;;;;;4950534;28;20042;-70
2022/03/02 14:02:19;;;;;;;9.50;3.92;;;;;;;;;;4973054;28;20507;-73
2022/03/02 14:05:26;;;;;;;13.50;6.28;;;;;;;;;;4973292;28;20042;-70
2022/03/02 14:08:40;;;;;;;13.07;5.30;;;;;;;;;;4972989;28;20049;-71
2022/03/02 14:11:56;;;;;;;11.38;5.32;;;;;;;;;;4972642;28;20035;-72
2022/03/02 14:15:11;;;;;;;9.63;4.38;;;;;;;;;;5347130;23;20058;-71
2022/03/02 14:18:20;;;;;;;12.23;4.93;;;;;;;;;;4972579;28;20047;-78
2022/03/02 14:21:25;;;;;;;7.60;4.28;;;;;;;;;;4972669;28;20034;-73
2022/03/02 14:24:32;;;;;;;15.65;5.32;;;;;;;;;;4960595;28;20050;-78
2022/03/02 14:27:37;;;;;;;7.35;3.83;;;;;;;;;;4972029;28;20046;-73
2022/03/02 14:30:43;;;;;;;6.72;3.92;;;;;;;;;;4972429;28;20051;-71
2022/03/02 14:33:57;;;;;;;11.60;6.28;;;;;;;;;;4972179;28;20058;-74
2022/03/02 14:37:15;;;;;;;9.07;4.68;;;;;;;;;;4972262;28;20662;-75
2022/03/02 14:40:27;;;;;;;7.93;4.70;;;;;;;;;;4972866;28;20034;-77
2022/03/02 14:43:31;;;;;;;;;;;;;;;;;;4973171;28;20490;-76
2022/03/02 14:46:35;;;;;;;6.82;4.55;;;;;;;;;;4973296;28;20381;-75
2022/03/02 14:49:40;;;;;;;12.77;5.18;;;;;;;;;;4973178;28;20375;-81
2022/03/02 14:52:49;;;;;;;13.35;5.30;;;;;;;;;;4972946;28;20046;-78
2022/03/02 14:55:55;;;;;;;12.23;6.07;;;;;;;;;;4960511;28;20051;-78
2022/03/02 14:59:00;;;;;;;9.07;5.03;;;;;;;;;;4960373;28;20054;-77
2022/03/02 15:02:06;;;;;;;8.98;4.55;;;;;;;;;;4972460;28;20039;-81
2022/03/02 15:05:10;;;;;;;12.13;4.88;;;;;;;;;;4971758;28;20034;-72
2022/03/02 15:08:15;;;;;;;9.57;4.90;;;;;;;;;;4971573;28;20414;-75
2022/03/02 15:11:26;;;;;;;12.25;4.50;;;;;;;;;;4948966;28;20038;-70
2022/03/02 15:17:55;;;;;;;8.25;4.78;;;;;;;;;;4972042;28;20035;-72
2022/03/02 15:20:59;;;;;;;8.95;5.40;;;;;;;;;;4972925;28;20371;-70
2022/03/02 15:24:04;;;;;;;7.50;4.78;;;;;;;;;;4971741;28;20043;-74
2022/03/02 15:27:16;;;;;;;15.20;4.65;;;;;;;;;;4975330;28;20050;-71
2022/03/02 15:30:20;;;;;;;6.57;3.90;;;;;;;;;;4975942;28;20047;-75
2022/03/02 15:33:27;;;;;;;12.10;4.93;;;;;;;;;;4975155;28;20051;-68
2022/03/02 15:36:48;;;;;;;12.05;4.78;;;;;;;;;;4963376;28;20039;-72
2022/03/02 15:39:56;;;;;;;12.95;4.95;;;;;;;;;;4975720;28;20340;-72
2022/03/02 15:43:02;;;;;;;10.40;5.57;;;;;;;;;;4975695;28;20046;-74
2022/03/02 15:46:14;;;;;;;17.55;6.53;;;;;;;;;;4975435;28;20042;-72
2022/03/02 15:49:18;;;;;;;18.02;6.53;;;;;;;;;;4975419;28;20043;-72
2022/03/02 15:52:39;;;;;;;7.70;5.40;;;;;;;;;;4963597;28;20360;-69
2022/03/02 15:55:46;;;;;;;12.05;6.55;;;;;;;;;;4975115;28;20047;-71
2022/03/02 15:58:50;;;;;;;8.27;5.28;;;;;;;;;;4975196;28;20402;-75
2022/03/02 16:01:55;;;;;;;11.43;4.68;;;;;;;;;;4975076;28;20046;-72
2022/03/02 16:05:07;;;;;;;8.15;5.05;;;;;;;;;;4975029;28;20035;-74
2022/03/02 16:08:15;;;;;;;14.05;4.97;;;;;;;;;;4974972;28;20066;-76
2022/03/02 16:11:21;;;;;;;16.75;5.57;;;;;;;;;;4963559;28;20044;-76
2022/03/02 16:14:25;;;;;;;8.68;5.25;;;;;;;;;;4974929;28;20059;-76
2022/03/02 16:17:49;;;;;;;11.88;6.80;;;;;;;;;;4963230;28;20039;-79
2022/03/02 16:20:53;;;;;;;11.73;5.43;;;;;;;;;;4974775;28;20034;-74
2022/03/02 16:23:58;;;;;;;7.75;4.57;;;;;;;;;;4974203;28;20062;-73
2022/03/02 16:27:20;;;;;;;13.85;5.47;;;;;;;;;;4974367;28;20039;-72
2022/03/02 16:30:26;;;;;;;13.30;5.15;;;;;;;;;;4974530;28;20055;-75
2022/03/02 16:33:32;;;;;;;9.52;5.30;;;;;;;;;;4974102;28;20054;-73
2022/03/02 16:36:37;;;;;;;12.85;6.35;;;;;;;;;;4962183;28;20050;-75
2022/03/02 16:39:41;;;;;;;12.65;5.40;;;;;;;;;;4950990;28;20045;-72
2022/03/02 16:42:47;;;;;;;11.85;6.38;;;;;;;;;;4962523;28;20043;-72
2022/03/02 16:45:52;;;;;;;11.90;5.82;;;;;;;;;;4974096;28;20047;-73
2022/03/02 16:48:56;;;;;;;10.00;6.00;;;;;;;;;;4974229;28;20039;-75
2022/03/02 16:52:00;;;;;;;19.02;6.18;;;;;;;;;;4974543;28;20034;-74
2022/03/02 16:55:06;;;;;;;15.48;5.97;;;;;;;;;;4974171;28;20049;-74
2022/03/02 16:58:11;;;;;;;17.80;7.15;;;;;;;;;;4973939;28;20062;-75
2022/03/02 17:01:15;;;;;;;18.30;7.47;;;;;;;;;;4962194;28;20039;-80
2022/03/02 17:04:20;;;;;;;14.77;8.13;;;;;;;;;;4962213;28;20043;-77
2022/03/02 17:07:24;;;;;;;22.63;8.90;;;;;;;;;;4962023;28;20050;-75
2022/03/02 17:10:38;;;;;;;15.27;7.75;;;;;;;;;;4973770;28;20045;-75
2022/03/02 17:13:42;;;;;;;16.90;7.05;;;;;;;;;;4973274;28;20047;-73
2022/03/02 17:16:47;;;;;;;16.58;7.82;;;;;;;;;;4942304;29;20050;-72
2022/03/02 17:19:52;;;;;;;20.08;7.50;;;;;;;;;;4954271;29;20083;-70
2022/03/02 17:22:56;;;;;;;20.10;6.32;;;;;;;;;;4942221;29;20051;-73
2022/03/02 17:26:00;;;;;;;16.42;7.15;;;;;;;;;;4953177;29;20518;-75
2022/03/02 17:29:05;;;;;;;18.92;9.20;;;;;;;;;;4953740;29;20036;-74
2022/03/02 17:32:09;;;;;;;28.98;10.15;;;;;;;;;;4952600;29;20047;-75
2022/03/02 17:35:15;;;;;;;25.30;10.45;;;;;;;;;;4953525;29;20062;-74
2022/03/02 17:38:19;;;;;;;19.13;9.70;;;;;;;;;;4941771;29;20407;-71
2022/03/02 17:41:26;;;;;;;27.70;12.80;;;;;;;;;;4953549;29;20048;-71
2022/03/02 17:44:30;;;;;;;21.98;11.60;;;;;;;;;;4953482;29;20046;-70
2022/03/02 17:47:34;;;;;;;17.45;11.38;;;;;;;;;;4953327;28;20055;-73
2022/03/02 17:50:39;;;;;;;18.40;11.82;;;;;;;;;;4954197;29;20424;-81
2022/03/02 17:53:43;;;;;;;33.15;17.42;;;;;;;;;;4953489;29;20055;-75
2022/03/02 17:56:48;;;;;;;38.67;21.80;;;;;;;;;;4941505;29;20063;-76
2022/03/02 17:59:53;;;;;;;42.00;24.38;;;;;;;;;;4953506;29;20045;-72
2022/03/02 18:02:57;;;;;;;48.72;29.27;;;;;;;;;;4953337;29;20050;-72
2022/03/02 18:06:02;;;;;;;44.20;24.77;;;;;;;;;;4953481;29;20050;-74
2022/03/02 18:09:07;;;;;;;38.58;23.08;;;;;;;;;;4952955;29;20057;-72
2022/03/02 18:12:12;;;;;;;36.42;22.20;;;;;;;;;;4940427;29;20042;-73
2022/03/02 18:15:17;;;;;;;37.90;21.10;;;;;;;;;;4938188;28;20415;-72
2022/03/02 18:18:21;;;;;;;35.10;18.58;;;;;;;;;;4971933;28;20046;-72
2022/03/02 18:21:29;;;;;;;31.13;19.10;;;;;;;;;;4972358;28;20066;-72
2022/03/02 18:24:33;;;;;;;34.90;18.10;;;;;;;;;;4971939;28;20054;-72
2022/03/02 18:27:38;;;;;;;32.33;16.60;;;;;;;;;;4972132;28;20478;-72
2022/03/02 18:30:43;;;;;;;43.28;17.85;;;;;;;;;;4948948;28;20391;-72
2022/03/02 18:33:47;;;;;;;38.38;17.83;;;;;;;;;;4971726;28;20045;-72